Time;durP1;ratioP1;P1;durP2;ratioP2;P2;SDS_P1;SDS_P2;PMS_P1;PMS_P2;Temp;Humidity;BMP_temperature;BMP_pressure;BME280_temperature;BME280_humidity;BME280_pressure;Samples;Min_cycle;Max_cycle;Signal;HPM_P1;HPM_P2
2023/04/06 00:00:58;;;;;;;2.22;0.68;;;2.40;99.30;;;;;;5052821;28;20040;-71
2023/04/06 00:03:26;;;;;;;1.00;0.90;;;2.40;99.60;;;;;;5052565;28;20041;-71
2023/04/06 00:05:53;;;;;;;1.23;0.75;;;2.40;99.70;;;;;;5051112;28;20037;-71
2023/04/06 00:08:21;;;;;;;1.17;0.93;;;2.30;99.90;;;;;;5052503;28;20049;-71
2023/04/06 00:10:47;;;;;;;1.63;1.02;;;2.30;99.90;;;;;;5051131;28;20509;-71
2023/04/06 00:13:15;;;;;;;1.40;0.73;;;2.20;99.90;;;;;;5050666;28;20508;-71
2023/04/06 00:15:43;;;;;;;1.00;0.93;;;2.20;99.90;;;;;;5051015;28;20113;-71
2023/04/06 00:18:11;;;;;;;2.20;0.73;;;2.10;99.90;;;;;;5052559;28;20126;-71
2023/04/06 00:20:39;;;;;;;1.13;0.77;;;2.10;99.90;;;;;;5050705;28;20537;-71
2023/04/06 00:23:07;;;;;;;1.48;1.17;;;2.10;99.90;;;;;;5052336;28;20036;-71
2023/04/06 00:25:35;;;;;;;0.50;0.50;;;2.10;99.90;;;;;;5051411;28;20118;-71
2023/04/06 00:28:03;;;;;;;1.52;0.50;;;2.00;99.90;;;;;;5050825;28;20136;-71
2023/04/06 00:30:28;;;;;;;0.93;0.73;;;2.00;99.90;;;;;;5052216;28;20102;-71
2023/04/06 00:32:56;;;;;;;2.08;0.88;;;2.00;99.90;;;;;;5051560;28;20401;-71
2023/04/06 00:35:22;;;;;;;7.18;1.27;;;2.00;99.90;;;;;;5050683;28;20163;-71
2023/04/06 00:37:49;;;;;;;1.85;0.90;;;2.00;99.90;;;;;;5052006;28;20055;-71
2023/04/06 00:40:17;;;;;;;0.60;0.60;;;1.90;99.90;;;;;;5051240;28;20044;-71
2023/04/06 00:42:46;;;;;;;0.95;0.65;;;1.90;99.90;;;;;;5050728;28;20105;-72
2023/04/06 00:45:14;;;;;;;1.63;0.70;;;1.90;99.90;;;;;;5050554;28;20496;-71
2023/04/06 00:47:41;;;;;;;2.42;1.10;;;1.90;99.90;;;;;;5049809;28;20557;-72
2023/04/06 00:50:08;;;;;;;0.98;0.60;;;1.90;99.90;;;;;;5050523;28;20048;-71
2023/04/06 00:52:36;;;;;;;1.83;0.80;;;1.90;99.90;;;;;;5034038;28;20044;-71
2023/04/06 00:55:06;;;;;;;1.00;0.70;;;1.90;99.90;;;;;;5049630;28;20106;-71
2023/04/06 00:57:34;;;;;;;1.35;1.17;;;1.90;99.90;;;;;;5050562;28;20056;-72
2023/04/06 01:00:02;;;;;;;2.47;1.10;;;1.90;99.90;;;;;;5050026;28;20048;-71
2023/04/06 01:02:29;;;;;;;1.40;0.80;;;1.90;99.90;;;;;;5051202;28;20033;-71
2023/04/06 01:04:57;;;;;;;0.75;0.73;;;1.90;99.90;;;;;;5050337;28;20041;-71
2023/04/06 01:07:24;;;;;;;1.25;0.95;;;1.90;99.90;;;;;;5033502;28;20052;-71
2023/04/06 01:09:52;;;;;;;0.90;0.80;;;1.90;99.90;;;;;;5049691;28;20047;-71
2023/04/06 01:12:20;;;;;;;0.75;0.57;;;1.90;99.90;;;;;;5051376;28;20040;-71
2023/04/06 01:14:48;;;;;;;2.33;1.20;;;1.90;99.90;;;;;;5049315;28;20047;-71
2023/04/06 01:17:16;;;;;;;1.42;0.82;;;1.90;99.90;;;;;;5051104;28;20103;-71
2023/04/06 01:19:45;;;;;;;0.73;0.63;;;1.90;99.90;;;;;;5051190;28;20041;-71
2023/04/06 01:22:18;;;;;;;1.95;1.23;;;1.90;99.90;;;;;;5049214;28;20571;-71
2023/04/06 01:24:46;;;;;;;4.97;1.33;;;1.90;99.90;;;;;;5049922;28;20080;-71
2023/04/06 01:27:15;;;;;;;2.33;1.67;;;1.90;99.90;;;;;;5050045;28;20053;-71
2023/04/06 01:29:42;;;;;;;7.40;1.38;;;1.90;99.90;;;;;;5049022;28;20064;-71
2023/04/06 01:32:11;;;;;;;1.73;0.82;;;1.80;99.90;;;;;;5049780;28;20136;-71
2023/04/06 01:34:38;;;;;;;2.38;1.45;;;1.80;99.90;;;;;;5049681;28;20559;-71
2023/04/06 01:37:05;;;;;;;0.57;0.57;;;1.90;99.90;;;;;;5050404;28;20040;-71
2023/04/06 01:39:33;;;;;;;1.50;1.20;;;1.80;99.90;;;;;;5049552;28;20519;-72
2023/04/06 01:42:01;;;;;;;1.70;0.73;;;1.80;99.90;;;;;;5049561;28;20083;-71
2023/04/06 01:44:29;;;;;;;2.00;1.35;;;1.80;99.90;;;;;;5050247;28;20055;-71
2023/04/06 01:46:57;;;;;;;0.47;0.47;;;1.70;99.90;;;;;;5049506;28;20097;-71
2023/04/06 01:49:26;;;;;;;3.50;1.05;;;1.70;99.90;;;;;;5050669;28;20040;-71
2023/04/06 01:51:53;;;;;;;0.40;0.40;;;1.60;99.90;;;;;;5048798;28;20056;-71
2023/04/06 01:54:22;;;;;;;0.95;0.40;;;1.60;99.90;;;;;;5049733;28;20036;-71
2023/04/06 01:56:50;;;;;;;0.52;0.47;;;1.60;99.90;;;;;;5032128;28;20053;-71
2023/04/06 01:59:18;;;;;;;0.47;0.47;;;1.50;99.90;;;;;;5050615;28;20036;-71
2023/04/06 02:01:45;;;;;;;0.60;0.60;;;1.50;99.90;;;;;;5049341;28;20044;-71
2023/04/06 02:04:13;;;;;;;1.35;0.93;;;1.40;99.90;;;;;;5050119;28;20041;-71
2023/04/06 02:06:41;;;;;;;1.63;0.75;;;1.30;99.90;;;;;;5032913;28;20039;-71
2023/04/06 02:09:09;;;;;;;1.75;1.23;;;1.20;99.90;;;;;;5050412;28;20131;-71
2023/04/06 02:11:37;;;;;;;1.83;1.35;;;1.20;99.90;;;;;;5048536;28;20044;-71
2023/04/06 02:14:05;;;;;;;0.68;0.50;;;1.20;99.90;;;;;;5049226;28;20092;-71
2023/04/06 02:16:33;;;;;;;1.55;0.65;;;1.30;99.90;;;;;;5049201;28;20127;-71
2023/04/06 02:19:00;;;;;;;1.25;0.98;;;1.30;99.90;;;;;;5050106;28;20052;-71
2023/04/06 02:21:28;;;;;;;1.08;0.63;;;1.20;99.90;;;;;;5049174;28;20048;-71
2023/04/06 02:23:56;;;;;;;0.75;0.60;;;1.30;99.90;;;;;;5050372;28;20106;-71
2023/04/06 02:26:24;;;;;;;1.48;1.02;;;1.30;99.90;;;;;;5048397;28;20052;-71
2023/04/06 02:28:50;;;;;;;1.15;1.05;;;1.30;99.90;;;;;;5051372;28;20048;-71
2023/04/06 02:31:17;;;;;;;2.85;0.85;;;1.30;99.90;;;;;;5054516;28;20124;-71
2023/04/06 02:33:44;;;;;;;1.25;0.80;;;1.30;99.90;;;;;;5052543;28;20080;-71
2023/04/06 02:36:12;;;;;;;1.98;0.88;;;1.30;99.90;;;;;;5052864;28;20087;-71
2023/04/06 02:38:40;;;;;;;1.23;0.52;;;1.20;99.90;;;;;;5053731;28;20544;-71
2023/04/06 02:41:06;;;;;;;2.42;1.27;;;1.20;99.90;;;;;;5054488;28;20182;-71
2023/04/06 02:43:36;;;;;;;1.23;1.10;;;1.10;99.90;;;;;;5053080;28;20032;-71
2023/04/06 02:46:04;;;;;;;1.85;1.00;;;1.20;99.90;;;;;;5053583;28;20044;-71
2023/04/06 02:48:32;;;;;;;1.67;1.23;;;1.20;99.90;;;;;;5054122;28;20040;-71
2023/04/06 02:51:00;;;;;;;2.08;1.08;;;1.20;99.90;;;;;;5052731;28;20045;-71
2023/04/06 02:53:28;;;;;;;0.68;0.68;;;1.20;99.90;;;;;;5035736;28;20063;-71
2023/04/06 02:55:55;;;;;;;2.28;1.23;;;1.30;99.90;;;;;;5052432;28;20052;-71
2023/04/06 02:58:23;;;;;;;2.83;0.55;;;1.20;99.90;;;;;;5052514;28;20045;-71
2023/04/06 03:00:51;;;;;;;0.43;0.43;;;1.20;99.90;;;;;;5053364;28;20039;-71
2023/04/06 03:03:19;;;;;;;0.70;0.55;;;1.10;99.90;;;;;;5052734;28;20040;-71
2023/04/06 03:05:46;;;;;;;4.15;0.73;;;1.00;99.90;;;;;;5052364;28;20047;-71
2023/04/06 03:08:14;;;;;;;1.20;0.82;;;0.90;99.90;;;;;;5051736;28;20048;-71
2023/04/06 03:10:42;;;;;;;1.17;0.70;;;0.80;99.90;;;;;;5052327;28;20551;-71
2023/04/06 03:13:10;;;;;;;2.85;1.13;;;0.70;99.90;;;;;;5052233;28;20043;-71
2023/04/06 03:15:38;;;;;;;1.52;0.75;;;0.60;99.90;;;;;;5051523;28;20098;-71
2023/04/06 03:18:06;;;;;;;1.35;0.95;;;0.70;99.90;;;;;;5052195;28;20041;-71
2023/04/06 03:20:34;;;;;;;1.00;0.77;;;0.60;99.90;;;;;;5053344;28;20095;-71
2023/04/06 03:23:02;;;;;;;1.13;0.80;;;0.70;99.90;;;;;;5053285;28;20091;-71
2023/04/06 03:25:30;;;;;;;1.50;0.82;;;0.60;99.90;;;;;;5051820;28;20140;-71
2023/04/06 03:27:58;;;;;;;3.13;1.85;;;0.70;99.90;;;;;;5051547;28;20055;-71
2023/04/06 03:30:26;;;;;;;1.75;1.20;;;0.70;99.90;;;;;;5053333;28;20043;-71
2023/04/06 03:32:52;;;;;;;1.52;0.88;;;0.60;99.90;;;;;;5051839;28;20056;-71
2023/04/06 03:35:20;;;;;;;0.88;0.70;;;0.60;99.90;;;;;;5051514;28;20064;-71
2023/04/06 03:37:48;;;;;;;1.65;1.50;;;0.50;99.90;;;;;;5051855;28;20043;-71
2023/04/06 03:40:16;;;;;;;6.55;1.42;;;0.50;99.90;;;;;;5050208;28;20047;-71
2023/04/06 03:42:44;;;;;;;2.15;1.00;;;0.40;99.90;;;;;;5051114;28;20127;-71
2023/04/06 03:45:13;;;;;;;1.67;0.95;;;0.40;99.90;;;;;;5051691;28;20039;-71
2023/04/06 03:47:41;;;;;;;0.60;0.60;;;0.40;99.90;;;;;;5052829;28;20086;-71
2023/04/06 03:50:09;;;;;;;1.13;0.88;;;0.40;99.90;;;;;;5052464;28;20037;-71
2023/04/06 03:52:37;;;;;;;0.93;0.88;;;0.50;99.90;;;;;;5051539;28;20079;-71
2023/04/06 03:55:05;;;;;;;2.00;1.90;;;0.50;99.90;;;;;;5051420;28;20052;-71
2023/04/06 03:57:33;;;;;;;1.67;1.25;;;0.50;99.90;;;;;;5051109;28;20041;-71
2023/04/06 03:59:59;;;;;;;1.25;0.70;;;0.50;99.90;;;;;;5051603;28;20098;-71
2023/04/06 04:02:25;;;;;;;0.90;0.75;;;0.60;99.90;;;;;;5051640;28;20049;-71
2023/04/06 04:04:54;;;;;;;0.70;0.60;;;0.60;99.90;;;;;;5052204;28;20492;-71
2023/04/06 04:07:20;;;;;;;1.17;0.93;;;0.70;99.90;;;;;;5051536;28;20396;-71
2023/04/06 04:09:48;;;;;;;1.02;0.63;;;0.70;99.90;;;;;;5052076;28;20037;-71
2023/04/06 04:12:16;;;;;;;2.08;0.88;;;0.70;99.90;;;;;;5052518;28;20477;-71
2023/04/06 04:14:44;;;;;;;1.80;1.08;;;0.70;99.90;;;;;;5052368;28;20048;-71
2023/04/06 04:17:11;;;;;;;3.22;1.48;;;0.70;99.90;;;;;;5050453;28;20064;-71
2023/04/06 04:19:38;;;;;;;1.98;1.35;;;0.70;99.90;;;;;;5051278;28;20088;-71
2023/04/06 04:22:06;;;;;;;2.35;1.13;;;0.70;99.90;;;;;;5050997;28;20129;-71
2023/04/06 04:24:34;;;;;;;3.45;1.98;;;0.70;99.90;;;;;;5051541;28;20382;-71
2023/04/06 04:27:04;;;;;;;1.25;0.80;;;0.70;99.90;;;;;;5052267;28;20049;-71
2023/04/06 04:29:33;;;;;;;2.22;1.33;;;0.60;99.90;;;;;;5052322;28;20051;-71
2023/04/06 04:32:00;;;;;;;3.38;1.15;;;0.50;99.90;;;;;;5050249;28;20037;-70
2023/04/06 04:34:28;;;;;;;1.83;0.77;;;0.40;99.90;;;;;;5052194;28;20170;-71
2023/04/06 04:36:57;;;;;;;2.50;1.63;;;0.30;99.90;;;;;;5051905;28;20064;-71
2023/04/06 04:39:24;;;;;;;2.60;1.08;;;0.30;99.90;;;;;;5050134;28;20059;-71
2023/04/06 04:41:51;;;;;;;1.48;1.10;;;0.30;99.90;;;;;;5051892;28;20121;-71
2023/04/06 04:44:18;;;;;;;1.00;0.88;;;0.30;99.90;;;;;;5050768;28;20397;-71
2023/04/06 04:46:46;;;;;;;1.25;0.93;;;0.30;99.90;;;;;;5050215;28;20079;-71
2023/04/06 04:49:14;;;;;;;4.45;1.50;;;0.40;99.90;;;;;;5033765;28;20130;-71
2023/04/06 04:51:41;;;;;;;0.73;0.60;;;0.40;99.90;;;;;;5049543;28;20068;-71
2023/04/06 04:54:08;;;;;;;1.48;0.88;;;0.40;99.90;;;;;;5050411;28;20052;-71
2023/04/06 04:56:36;;;;;;;3.83;1.27;;;0.40;99.90;;;;;;5051759;28;20049;-71
2023/04/06 04:59:04;;;;;;;1.23;0.93;;;0.40;99.90;;;;;;5050904;28;20044;-71
2023/04/06 05:01:32;;;;;;;2.03;1.38;;;0.50;99.90;;;;;;5048985;28;20047;-71
2023/04/06 05:04:00;;;;;;;2.72;0.88;;;0.50;99.90;;;;;;5049278;28;20043;-71
2023/04/06 05:06:28;;;;;;;2.88;1.13;;;0.50;99.90;;;;;;5049642;28;20045;-71
2023/04/06 05:08:56;;;;;;;3.92;1.00;;;0.50;99.90;;;;;;5050261;28;20182;-72
2023/04/06 05:11:24;;;;;;;0.95;0.73;;;0.50;99.90;;;;;;5048783;28;20055;-71
2023/04/06 05:13:52;;;;;;;3.72;2.08;;;0.50;99.90;;;;;;5049629;28;20134;-71
2023/04/06 05:16:20;;;;;;;2.15;1.05;;;0.60;99.90;;;;;;5032178;28;20094;-71
2023/04/06 05:18:50;;;;;;;0.82;0.65;;;0.60;99.90;;;;;;5049955;28;20044;-71
2023/04/06 05:21:18;;;;;;;1.33;0.80;;;0.60;99.90;;;;;;5048336;28;20041;-71
2023/04/06 05:23:46;;;;;;;1.95;1.20;;;0.60;99.90;;;;;;5048957;28;20041;-71
2023/04/06 05:26:14;;;;;;;0.50;0.50;;;0.60;99.90;;;;;;5049867;28;20064;-71
2023/04/06 05:28:42;;;;;;;0.90;0.90;;;0.60;99.90;;;;;;5049357;28;20044;-71
2023/04/06 05:31:09;;;;;;;2.88;1.23;;;0.60;99.90;;;;;;5049862;28;20147;-71
2023/04/06 05:33:37;;;;;;;2.53;1.77;;;0.70;99.90;;;;;;5047860;28;20562;-71
2023/04/06 05:36:05;;;;;;;2.40;0.93;;;0.70;99.90;;;;;;5049574;28;20123;-71
2023/04/06 05:38:33;;;;;;;2.72;0.68;;;0.80;99.90;;;;;;5048370;28;20055;-71
2023/04/06 05:41:01;;;;;;;3.22;1.48;;;0.90;99.90;;;;;;5048086;28;20032;-71
2023/04/06 05:43:28;;;;;;;1.20;0.85;;;0.90;99.90;;;;;;5048257;28;20044;-71
2023/04/06 05:45:56;;;;;;;1.63;0.73;;;1.00;99.90;;;;;;5049636;28;20405;-72
2023/04/06 05:48:24;;;;;;;2.40;1.17;;;1.00;99.90;;;;;;5047554;28;20103;-71
2023/04/06 05:50:52;;;;;;;2.00;1.33;;;1.10;99.90;;;;;;5048513;28;20033;-71
2023/04/06 05:53:20;;;;;;;0.90;0.82;;;1.10;99.90;;;;;;5049648;28;20044;-71
2023/04/06 05:55:49;;;;;;;2.70;1.40;;;1.20;99.90;;;;;;5047459;28;20087;-71
2023/04/06 05:58:16;;;;;;;1.20;1.00;;;1.30;99.90;;;;;;5048504;28;20044;-71
2023/04/06 06:00:45;;;;;;;2.45;0.68;;;1.40;99.90;;;;;;5049385;28;20037;-71
2023/04/06 06:03:14;;;;;;;3.30;1.60;;;1.40;99.90;;;;;;5046596;28;20041;-72
2023/04/06 06:05:42;;;;;;;1.40;1.00;;;1.50;99.90;;;;;;5048415;28;20460;-71
2023/04/06 06:08:10;;;;;;;2.95;1.42;;;1.60;99.90;;;;;;5031480;28;20135;-71
2023/04/06 06:10:38;;;;;;;3.72;1.17;;;1.70;99.90;;;;;;5048877;28;20106;-71
2023/04/06 06:13:06;;;;;;;2.58;1.88;;;1.80;99.90;;;;;;5049300;28;20043;-71
2023/04/06 06:15:32;;;;;;;2.15;1.95;;;2.00;99.90;;;;;;5049087;28;20147;-72
2023/04/06 06:17:58;;;;;;;1.98;1.58;;;2.10;99.90;;;;;;5048259;28;20068;-71
2023/04/06 06:20:26;;;;;;;1.95;1.58;;;2.30;99.90;;;;;;5047974;28;20485;-71
2023/04/06 06:22:54;;;;;;;2.08;1.23;;;2.60;99.90;;;;;;5047329;28;20059;-71
2023/04/06 06:25:22;;;;;;;1.65;0.90;;;2.90;99.90;;;;;;5047861;28;20127;-71
2023/04/06 06:27:49;;;;;;;1.20;1.10;;;3.10;99.90;;;;;;5047831;28;20052;-71
2023/04/06 06:30:18;;;;;;;2.65;1.80;;;3.40;99.90;;;;;;5049156;28;20121;-70
2023/04/06 06:32:46;;;;;;;5.15;1.73;;;3.70;99.90;;;;;;5032458;28;20100;-71
2023/04/06 06:35:14;;;;;;;2.58;1.70;;;4.00;99.90;;;;;;5048800;28;20048;-70
2023/04/06 06:37:42;;;;;;;5.57;1.83;;;4.20;99.90;;;;;;5049762;28;20044;-73
2023/04/06 06:40:10;;;;;;;3.15;1.27;;;4.50;99.90;;;;;;5049051;28;20140;-70
2023/04/06 06:42:38;;;;;;;2.90;1.67;;;4.70;99.90;;;;;;5048704;28;20025;-70
2023/04/06 06:45:05;;;;;;;1.73;1.05;;;4.90;99.90;;;;;;5048553;28;20041;-71
2023/04/06 06:47:33;;;;;;;3.38;1.42;;;4.90;99.90;;;;;;5047617;28;20053;-70
2023/04/06 06:50:00;;;;;;;4.32;2.22;;;4.90;99.90;;;;;;5047870;28;20047;-70
2023/04/06 06:52:28;;;;;;;7.75;2.03;;;5.00;99.90;;;;;;5047297;28;20037;-70
2023/04/06 06:54:56;;;;;;;1.60;0.93;;;5.30;99.90;;;;;;5048820;28;20041;-70
2023/04/06 06:57:22;;;;;;;2.70;2.17;;;5.50;99.90;;;;;;5047330;28;20053;-70
2023/04/06 06:59:49;;;;;;;4.85;2.47;;;5.80;99.90;;;;;;5046854;28;20095;-70
2023/04/06 07:02:17;;;;;;;2.38;1.67;;;6.00;99.90;;;;;;5048575;28;20077;-70
2023/04/06 07:04:45;;;;;;;3.65;1.65;;;6.20;99.90;;;;;;5046982;28;20103;-71
2023/04/06 07:07:12;;;;;;;4.32;2.55;;;6.40;99.90;;;;;;5047493;28;20045;-70
2023/04/06 07:09:40;;;;;;;4.35;1.90;;;6.50;99.90;;;;;;5047410;28;20043;-70
2023/04/06 07:12:08;;;;;;;2.70;1.70;;;6.60;99.90;;;;;;5047144;28;20079;-70
2023/04/06 07:14:36;;;;;;;4.00;2.53;;;6.60;99.90;;;;;;5050363;28;20048;-70
2023/04/06 07:17:04;;;;;;;5.00;2.28;;;6.70;99.90;;;;;;5050847;28;20044;-70
2023/04/06 07:19:31;;;;;;;6.75;1.52;;;6.80;99.90;;;;;;5051415;28;20037;-70
2023/04/06 07:21:59;;;;;;;7.85;2.75;;;6.80;99.90;;;;;;5050923;28;20401;-70
2023/04/06 07:24:26;;;;;;;5.07;2.67;;;6.80;99.90;;;;;;5050597;28;20111;-71
2023/04/06 07:26:54;;;;;;;3.97;1.92;;;6.90;99.90;;;;;;5050236;28;20045;-71
2023/04/06 07:29:22;;;;;;;4.30;2.58;;;7.00;99.90;;;;;;5051103;28;20444;-71
2023/04/06 07:31:49;;;;;;;3.60;1.85;;;7.10;99.90;;;;;;5052187;28;20094;-70
2023/04/06 07:34:17;;;;;;;2.80;1.50;;;7.10;99.90;;;;;;5050374;28;20041;-70
2023/04/06 07:36:45;;;;;;;3.20;1.40;;;7.10;99.90;;;;;;5033857;28;20512;-69
2023/04/06 07:39:13;;;;;;;5.10;2.13;;;7.20;99.90;;;;;;5050819;28;20040;-70
2023/04/06 07:41:41;;;;;;;2.67;1.65;;;7.20;99.90;;;;;;5049894;28;20045;-70
2023/04/06 07:44:07;;;;;;;5.07;2.00;;;7.40;99.90;;;;;;5051857;28;20105;-70
2023/04/06 07:46:35;;;;;;;4.15;2.20;;;7.40;99.90;;;;;;5049932;28;20079;-70
2023/04/06 07:49:03;;;;;;;5.25;2.60;;;7.60;99.90;;;;;;5051654;28;20055;-70
2023/04/06 07:51:30;;;;;;;6.35;2.38;;;7.70;99.90;;;;;;5052059;28;20091;-70
2023/04/06 07:53:59;;;;;;;6.13;2.00;;;8.10;99.90;;;;;;5051180;28;20120;-70
2023/04/06 07:56:26;;;;;;;6.38;1.92;;;8.40;99.90;;;;;;5050263;28;20055;-71
2023/04/06 07:58:55;;;;;;;3.03;1.85;;;8.70;99.90;;;;;;5050258;28;20122;-70
2023/04/06 08:01:21;;;;;;;4.53;2.08;;;9.00;99.90;;;;;;5033097;28;20072;-70
2023/04/06 08:03:46;;;;;;;4.78;2.50;;;9.30;99.90;;;;;;5051364;28;20126;-71
2023/04/06 08:06:12;;;;;;;6.43;2.22;;;9.60;99.90;;;;;;5051611;28;20438;-71
2023/04/06 08:08:38;;;;;;;4.95;2.92;;;9.80;99.90;;;;;;5050709;28;20452;-72
2023/04/06 08:11:04;;;;;;;6.93;2.50;;;10.20;99.90;;;;;;5050213;28;20048;-70
2023/04/06 08:13:32;;;;;;;7.13;2.55;;;10.50;99.90;;;;;;5050242;28;20508;-72
2023/04/06 08:16:01;;;;;;;4.82;3.22;;;10.70;99.90;;;;;;5049659;28;20460;-70
2023/04/06 08:18:29;;;;;;;4.50;2.70;;;10.70;99.00;;;;;;5050133;28;20051;-71
2023/04/06 08:20:56;;;;;;;6.57;2.90;;;10.50;99.00;;;;;;5049857;28;20076;-71
2023/04/06 08:23:24;;;;;;;6.32;2.90;;;10.40;98.40;;;;;;5049185;28;20037;-70
2023/04/06 08:25:52;;;;;;;6.65;3.13;;;10.30;99.40;;;;;;5049895;28;20497;-70
2023/04/06 08:28:18;;;;;;;3.45;1.77;;;10.30;99.10;;;;;;5049704;28;20532;-69
2023/04/06 08:30:44;;;;;;;6.82;2.72;;;10.30;98.60;;;;;;5048978;28;20052;-71
2023/04/06 08:33:13;;;;;;;6.43;3.22;;;10.40;98.60;;;;;;5051072;28;20048;-71
2023/04/06 08:35:41;;;;;;;3.90;2.65;;;10.60;98.80;;;;;;5049027;28;20075;-70
2023/04/06 08:38:08;;;;;;;4.40;2.53;;;10.90;99.00;;;;;;5049922;28;20036;-70
2023/04/06 08:40:38;;;;;;;4.93;3.58;;;11.10;97.90;;;;;;5049403;28;20194;-71
2023/04/06 08:43:08;;;;;;;5.25;3.63;;;11.00;96.80;;;;;;5049972;28;20079;-72
2023/04/06 08:45:37;;;;;;;8.02;3.40;;;11.10;97.30;;;;;;5050511;28;20052;-69
2023/04/06 08:48:03;;;;;;;6.07;3.47;;;11.20;97.50;;;;;;5049290;28;20080;-71
2023/04/06 08:50:32;;;;;;;6.32;3.55;;;11.20;96.70;;;;;;5050076;28;20170;-71
2023/04/06 08:53:01;;;;;;;5.95;3.78;;;11.10;97.00;;;;;;5049388;28;20138;-69
2023/04/06 08:55:29;;;;;;;8.52;3.60;;;11.10;96.30;;;;;;5032456;28;20516;-70
2023/04/06 08:57:57;;;;;;;6.85;3.75;;;11.10;96.50;;;;;;5048506;28;20126;-71
2023/04/06 09:00:25;;;;;;;3.83;2.53;;;11.20;96.00;;;;;;5032499;28;20041;-71
2023/04/06 09:02:55;;;;;;;8.75;3.15;;;11.40;96.70;;;;;;5050488;28;20033;-70
2023/04/06 09:05:25;;;;;;;6.40;4.10;;;11.50;96.10;;;;;;5049802;28;20044;-72
2023/04/06 09:07:53;;;;;;;7.25;4.15;;;11.50;95.10;;;;;;5049102;28;20029;-71
2023/04/06 09:10:20;;;;;;;6.88;3.08;;;11.50;95.30;;;;;;5049150;28;20085;-72
2023/04/06 09:12:48;;;;;;;8.55;4.22;;;11.80;95.20;;;;;;5049469;28;20037;-70
2023/04/06 09:15:23;;;;;;;8.38;3.25;;;11.90;95.00;;;;;;5049978;28;20036;-71
2023/04/06 09:17:51;;;;;;;8.23;3.92;;;12.00;95.20;;;;;;5031593;28;20095;-69
2023/04/06 09:20:25;;;;;;;5.30;2.95;;;12.30;94.20;;;;;;5049958;28;20555;-71
2023/04/06 09:22:52;;;;;;;4.47;2.92;;;12.40;93.60;;;;;;5049898;28;20575;-73
2023/04/06 09:25:23;;;;;;;6.95;3.55;;;12.30;93.40;;;;;;5047987;28;20470;-70
2023/04/06 09:28:03;;;;;;;10.75;4.55;;;12.20;93.80;;;;;;5048651;28;20083;-70
2023/04/06 09:30:32;;;;;;;6.53;3.75;;;12.40;94.00;;;;;;5032010;28;20071;-72
2023/04/06 09:33:00;;;;;;;5.85;2.72;;;12.50;94.10;;;;;;5048156;28;20063;-72
2023/04/06 09:35:31;;;;;;;8.10;4.93;;;12.50;93.80;;;;;;5048317;28;20127;-70
2023/04/06 09:37:57;;;;;;;8.43;3.72;;;12.30;92.20;;;;;;5032105;28;20123;-69
2023/04/06 09:40:24;;;;;;;5.03;2.95;;;12.10;92.50;;;;;;5049178;28;20033;-73
2023/04/06 09:42:53;;;;;;;9.38;4.18;;;12.00;92.50;;;;;;5048466;28;20099;-70
2023/04/06 09:45:21;;;;;;;5.78;3.08;;;11.70;92.10;;;;;;5049604;28;20098;-74
2023/04/06 09:47:49;;;;;;;6.70;3.10;;;11.60;92.20;;;;;;5049056;28;20079;-71
2023/04/06 09:50:18;;;;;;;15.40;4.68;;;11.40;92.30;;;;;;5049453;28;20033;-70
2023/04/06 09:52:53;;;;;;;5.22;3.53;;;11.30;92.80;;;;;;5049106;28;20144;-72
2023/04/06 09:55:39;;;;;;;7.10;4.07;;;11.30;93.10;;;;;;5049549;28;20044;-72
2023/04/06 09:58:10;;;;;;;12.45;4.65;;;11.30;93.70;;;;;;5049493;28;20039;-72
2023/04/06 10:00:54;;;;;;;8.20;4.95;;;11.30;93.60;;;;;;5047570;28;20519;-71
2023/04/06 10:03:49;;;;;;;4.10;2.72;;;11.30;93.60;;;;;;5048259;28;20110;-73
2023/04/06 10:06:18;;;;;;;4.72;3.70;;;11.40;92.90;;;;;;5048380;28;20049;-71
2023/04/06 10:08:48;;;;;;;5.53;3.30;;;11.30;93.20;;;;;;5048799;28;20114;-73
2023/04/06 10:11:17;;;;;;;9.35;4.80;;;11.20;93.60;;;;;;5048307;28;20044;-72
2023/04/06 10:13:47;;;;;;;9.85;3.67;;;11.20;93.70;;;;;;5047695;28;20443;-71
2023/04/06 10:16:15;;;;;;;6.85;3.63;;;11.30;93.80;;;;;;5047826;28;20041;-71
2023/04/06 10:18:48;;;;;;;5.97;4.30;;;11.30;93.90;;;;;;5048248;28;20413;-71
2023/04/06 10:21:19;;;;;;;9.75;4.65;;;11.40;94.10;;;;;;5047547;28;20126;-69
2023/04/06 10:23:52;;;;;;;6.05;3.20;;;11.50;94.40;;;;;;5048224;28;20120;-70
2023/04/06 10:26:23;;;;;;;6.13;3.45;;;11.60;93.90;;;;;;5049057;28;20072;-73
2023/04/06 10:28:51;;;;;;;10.43;6.30;;;11.70;93.10;;;;;;5047358;28;20048;-71
2023/04/06 10:31:28;;;;;;;8.85;3.30;;;11.70;93.50;;;;;;5048165;28;20041;-69
2023/04/06 10:33:56;;;;;;;6.35;3.40;;;12.00;93.30;;;;;;5047812;28;20077;-71
2023/04/06 10:36:25;;;;;;;8.50;4.57;;;12.20;92.90;;;;;;5047205;28;20079;-71
2023/04/06 10:39:01;;;;;;;8.55;4.47;;;12.30;93.00;;;;;;5047796;28;20097;-70
2023/04/06 10:41:35;;;;;;;12.02;4.45;;;12.50;93.00;;;;;;5047829;28;20082;-73
2023/04/06 10:44:04;;;;;;;7.45;3.63;;;12.60;92.70;;;;;;5047726;28;20048;-70
2023/04/06 10:46:33;;;;;;;10.60;4.47;;;12.50;91.40;;;;;;5047883;28;20052;-69
2023/04/06 10:49:14;;;;;;;10.32;4.20;;;12.40;91.50;;;;;;5048024;28;20059;-73
2023/04/06 10:51:42;;;;;;;4.07;3.10;;;12.20;91.80;;;;;;5053055;28;20057;-70
2023/04/06 10:54:12;;;;;;;6.38;3.85;;;12.10;92.00;;;;;;5052718;28;20040;-69
2023/04/06 10:56:40;;;;;;;7.13;3.05;;;12.00;92.30;;;;;;5050717;28;20048;-70
2023/04/06 10:59:08;;;;;;;11.88;4.63;;;12.00;91.40;;;;;;5051645;28;20389;-72
2023/04/06 11:01:36;;;;;;;4.88;3.22;;;11.90;91.70;;;;;;5052799;28;20125;-72
2023/04/06 11:04:03;;;;;;;10.18;4.45;;;11.90;91.80;;;;;;5052008;28;20044;-71
2023/04/06 11:06:32;;;;;;;6.05;3.97;;;11.90;91.90;;;;;;5034749;28;20041;-72
2023/04/06 11:09:01;;;;;;;5.25;4.38;;;11.90;91.50;;;;;;5052519;28;20127;-72
2023/04/06 11:11:27;;;;;;;8.65;4.90;;;11.80;91.70;;;;;;5051903;28;20406;-69
2023/04/06 11:13:56;;;;;;;7.75;4.32;;;11.80;91.80;;;;;;5052725;28;20041;-72
2023/04/06 11:16:26;;;;;;;6.73;4.17;;;11.70;92.10;;;;;;5051024;28;20527;-69
2023/04/06 11:18:55;;;;;;;8.52;4.07;;;11.70;92.30;;;;;;5050405;28;20279;-70
2023/04/06 11:21:41;;;;;;;7.57;4.10;;;11.60;92.10;;;;;;5052270;28;20045;-70
2023/04/06 11:24:12;;;;;;;6.47;2.92;;;11.60;92.50;;;;;;5050165;28;20053;-70
2023/04/06 11:26:48;;;;;;;12.02;5.50;;;11.60;93.30;;;;;;5052363;28;20044;-71
2023/04/06 11:29:18;;;;;;;11.85;5.15;;;11.60;93.50;;;;;;5052262;28;20056;-70
2023/04/06 11:31:49;;;;;;;5.45;3.22;;;11.70;93.80;;;;;;5050559;28;20051;-72
2023/04/06 11:34:24;;;;;;;12.85;6.28;;;11.80;93.20;;;;;;5052242;28;20390;-69
2023/04/06 11:37:04;;;;;;;11.40;4.43;;;11.80;93.40;;;;;;5050776;28;20401;-71
2023/04/06 11:39:32;;;;;;;9.10;3.78;;;11.90;93.10;;;;;;5051534;28;20047;-70
2023/04/06 11:42:02;;;;;;;6.22;5.07;;;11.90;93.60;;;;;;5050923;28;20060;-71
2023/04/06 11:44:35;;;;;;;6.93;3.78;;;11.90;93.70;;;;;;5050592;28;20489;-69
2023/04/06 11:47:04;;;;;;;9.90;4.05;;;11.90;93.70;;;;;;5050820;28;20619;-71
2023/04/06 11:49:35;;;;;;;8.65;4.70;;;12.00;93.70;;;;;;5050680;28;20102;-69
2023/04/06 11:52:03;;;;;;;5.40;3.25;;;12.10;93.70;;;;;;5049887;28;20618;-69
2023/04/06 11:54:39;;;;;;;3.10;2.58;;;12.10;93.30;;;;;;5051918;28;20110;-69
2023/04/06 11:57:07;;;;;;;7.63;4.47;;;12.10;92.80;;;;;;5050107;28;20049;-69
2023/04/06 11:59:36;;;;;;;7.07;4.55;;;12.10;92.90;;;;;;5049756;28;20068;-71
2023/04/06 12:02:05;;;;;;;5.20;3.10;;;12.10;93.30;;;;;;5050426;28;20029;-70
2023/04/06 12:04:32;;;;;;;10.10;4.73;;;12.10;92.80;;;;;;5050462;28;20051;-72
2023/04/06 12:06:58;;;;;;;12.88;6.93;;;12.20;93.00;;;;;;5050793;28;20286;-72
2023/04/06 12:09:24;;;;;;;10.18;4.68;;;12.20;92.80;;;;;;5051396;28;20090;-71
2023/04/06 12:11:52;;;;;;;9.18;4.20;;;12.20;93.20;;;;;;5051331;28;20052;-71
2023/04/06 12:14:20;;;;;;;10.68;4.43;;;12.20;93.70;;;;;;5049760;28;20044;-69
2023/04/06 12:16:48;;;;;;;8.57;2.67;;;12.20;94.30;;;;;;5051159;28;20052;-70
2023/04/06 12:19:14;;;;;;;7.10;4.82;;;12.30;94.30;;;;;;5049910;28;20044;-70
2023/04/06 12:21:42;;;;;;;11.50;4.10;;;12.30;94.00;;;;;;5049269;28;20036;-69
2023/04/06 12:24:10;;;;;;;8.52;4.40;;;12.20;94.00;;;;;;5049834;28;20509;-70
2023/04/06 12:26:38;;;;;;;8.32;3.63;;;12.10;95.00;;;;;;5049134;28;20075;-71
2023/04/06 12:29:08;;;;;;;4.72;2.58;;;12.00;95.00;;;;;;5049939;28;20076;-70
2023/04/06 12:31:38;;;;;;;6.28;2.40;;;11.90;96.10;;;;;;5049899;28;20138;-70
2023/04/06 12:34:06;;;;;;;4.95;3.00;;;11.80;96.70;;;;;;5049015;28;20502;-70
2023/04/06 12:36:34;;;;;;;7.03;2.22;;;11.80;97.10;;;;;;5049600;28;20056;-70
2023/04/06 12:39:03;;;;;;;4.88;1.85;;;11.80;97.30;;;;;;5049646;28;20448;-70
2023/04/06 12:41:32;;;;;;;3.75;2.08;;;11.80;97.80;;;;;;5048957;28;20039;-69
2023/04/06 12:44:01;;;;;;;3.20;1.83;;;11.90;97.70;;;;;;5050617;28;20115;-69
2023/04/06 12:46:29;;;;;;;4.90;3.37;;;11.90;99.50;;;;;;5050752;28;20040;-70
2023/04/06 12:48:57;;;;;;;4.07;2.67;;;11.90;99.90;;;;;;5048726;28;20041;-67
2023/04/06 12:51:25;;;;;;;5.75;3.08;;;11.80;99.90;;;;;;5050502;28;20458;-71
2023/04/06 12:53:53;;;;;;;8.55;3.88;;;11.70;99.90;;;;;;5050421;28;20555;-70
2023/04/06 12:56:21;;;;;;;4.65;2.97;;;11.60;99.90;;;;;;5049729;28;20513;-70
2023/04/06 12:58:49;;;;;;;7.05;2.55;;;11.60;99.90;;;;;;5050505;28;20398;-71